Time;durP1;ratioP1;P1;durP2;ratioP2;P2;SDS_P1;SDS_P2;PMS_P1;PMS_P2;Temp;Humidity;BMP_temperature;BMP_pressure;BME280_temperature;BME280_humidity;BME280_pressure;Samples;Min_cycle;Max_cycle;Signal;HPM_P1;HPM_P2
2022/09/10 00:00:25;;;;;;;;;12.60;12.60;30.30;99.90;;;;;;4953911;28;8839;-70
2022/09/10 00:02:56;;;;;;;;;10.00;10.00;30.30;99.90;;;;;;4955685;28;9604;-67
2022/09/10 00:05:26;;;;;;;;;10.40;9.40;30.20;99.90;;;;;;4959016;28;8870;-69
2022/09/10 00:07:58;;;;;;;;;13.00;13.00;30.30;99.90;;;;;;4971732;28;8843;-70
2022/09/10 00:10:28;;;;;;;;;10.00;10.00;30.30;99.90;;;;;;4953045;28;8898;-68
2022/09/10 00:12:59;;;;;;;;;10.00;9.40;30.10;99.90;;;;;;4956771;28;8855;-69
2022/09/10 00:15:31;;;;;;;;;9.40;8.60;30.20;99.90;;;;;;4957322;28;8839;-70
2022/09/10 00:18:01;;;;;;;;;11.80;11.80;30.10;99.90;;;;;;4954163;28;8859;-69
2022/09/10 00:20:32;;;;;;;;;10.60;10.60;30.10;99.90;;;;;;4954783;28;8827;-69
2022/09/10 00:23:03;;;;;;;;;11.60;11.60;30.10;99.90;;;;;;4952967;28;9032;-69
2022/09/10 00:25:37;;;;;;;;;12.80;12.80;30.00;99.90;;;;;;4953911;28;8827;-66
2022/09/10 00:28:09;;;;;;;;;11.00;11.00;29.90;99.90;;;;;;4951265;28;8862;-68
2022/09/10 00:30:44;;;;;;;;;8.00;8.00;29.90;99.90;;;;;;4984079;28;9602;-67
2022/09/10 00:33:15;;;;;;;;;9.40;9.40;29.80;99.90;;;;;;4948632;28;8851;-67
2022/09/10 00:35:49;;;;;;;;;10.60;10.60;29.80;99.90;;;;;;4955760;28;8851;-67
2022/09/10 00:38:20;;;;;;;;;9.00;9.00;29.80;99.90;;;;;;4948319;28;8871;-69
2022/09/10 00:40:51;;;;;;;;;6.40;6.40;29.70;99.90;;;;;;4951880;28;8846;-68
2022/09/10 00:43:25;;;;;;;;;10.40;10.40;29.70;99.90;;;;;;4952061;28;8890;-68
2022/09/10 00:45:57;;;;;;;;;13.20;12.00;29.70;99.90;;;;;;4958288;28;8869;-70
2022/09/10 00:48:33;;;;;;;;;11.20;11.20;29.60;99.90;;;;;;4955630;28;9454;-68
2022/09/10 00:51:05;;;;;;;;;8.00;8.00;29.60;99.90;;;;;;4954941;28;8923;-66
2022/09/10 00:53:35;;;;;;;;;10.20;10.20;29.50;99.90;;;;;;4965603;28;8835;-66
2022/09/10 00:56:08;;;;;;;;;11.00;11.00;29.50;99.90;;;;;;4978635;28;8843;-66
2022/09/10 00:58:37;;;;;;;;;11.00;11.00;29.40;99.90;;;;;;4962552;28;8889;-66
2022/09/10 01:01:10;;;;;;;;;12.60;12.60;29.40;99.90;;;;;;4952147;28;8844;-70
2022/09/10 01:03:43;;;;;;;;;12.40;12.40;29.30;99.90;;;;;;4981590;28;8849;-68
2022/09/10 01:06:14;;;;;;;;;11.00;11.00;29.20;99.90;;;;;;4986607;28;8839;-64
2022/09/10 01:08:45;;;;;;;;;10.40;10.40;29.20;99.90;;;;;;4974946;28;9537;-65
2022/09/10 01:11:18;;;;;;;;;11.40;11.40;29.20;99.90;;;;;;4958940;28;8874;-65
2022/09/10 01:14:11;;;;;;;;;13.00;13.00;29.20;99.90;;;;;;4958789;28;9865;-66
2022/09/10 01:17:21;;;;;;;;;12.20;12.20;29.20;99.90;;;;;;4962231;28;10011;-66
2022/09/10 01:20:23;;;;;;;;;11.60;11.60;29.10;99.90;;;;;;4982616;28;8883;-66
2022/09/10 01:23:32;;;;;;;;;13.00;13.00;29.00;99.90;;;;;;4972222;28;8878;-65
2022/09/10 01:26:40;;;;;;;;;12.00;12.00;29.00;99.90;;;;;;4958949;28;8839;-68
2022/09/10 01:29:34;;;;;;;;;10.00;10.00;29.00;99.90;;;;;;4958790;28;8839;-70
2022/09/10 01:32:21;;;;;;;;;11.40;11.40;29.00;99.90;;;;;;4957489;28;9009;-67
2022/09/10 01:35:19;;;;;;;;;11.40;11.40;28.90;99.90;;;;;;4959591;28;8992;-65
2022/09/10 01:37:54;;;;;;;;;12.60;12.60;28.80;99.90;;;;;;4947095;28;8863;-66
2022/09/10 01:40:28;;;;;;;;;13.60;13.60;28.80;99.90;;;;;;4960226;28;9393;-68
2022/09/10 01:43:11;;;;;;;;;14.50;14.50;28.80;99.90;;;;;;4961922;28;8862;-68
2022/09/10 01:46:02;;;;;;;;;10.20;10.20;28.70;99.90;;;;;;4974940;28;8843;-68
2022/09/10 01:49:12;;;;;;;;;13.60;12.00;28.70;99.90;;;;;;4979842;28;8846;-69
2022/09/10 01:52:37;;;;;;;;;12.40;12.40;28.60;99.90;;;;;;4973665;28;8870;-69
2022/09/10 01:55:21;;;;;;;;;10.80;10.80;28.60;99.90;;;;;;4953978;28;8839;-67
2022/09/10 01:58:12;;;;;;;;;11.80;11.80;28.60;99.90;;;;;;4954063;28;8851;-65
2022/09/10 02:01:16;;;;;;;;;12.60;12.60;28.60;99.90;;;;;;4969289;28;8887;-66
2022/09/10 02:03:51;;;;;;;;;11.00;11.00;28.50;99.90;;;;;;4961239;28;8942;-66
2022/09/10 02:06:28;;;;;;;;;12.60;12.60;28.50;99.90;;;;;;4956545;28;8868;-68
2022/09/10 02:09:02;;;;;;;;;13.40;13.40;28.40;99.90;;;;;;4979777;28;8845;-71
2022/09/10 02:11:51;;;;;;;;;14.00;14.00;28.30;99.90;;;;;;4954979;28;8870;-66
2022/09/10 02:14:39;;;;;;;;;13.40;13.40;28.30;99.90;;;;;;4980238;28;8843;-70
2022/09/10 02:17:24;;;;;;;;;13.00;13.00;28.30;99.90;;;;;;4974230;28;8835;-70
2022/09/10 02:19:55;;;;;;;;;11.00;11.00;28.30;99.90;;;;;;4983481;28;8875;-69
2022/09/10 02:22:27;;;;;;;;;10.80;10.80;28.20;99.90;;;;;;4983616;28;8847;-70
2022/09/10 02:24:58;;;;;;;;;15.25;15.25;28.20;99.90;;;;;;4950357;28;8918;-69
2022/09/10 02:27:33;;;;;;;;;14.25;14.25;28.20;99.90;;;;;;4973765;28;8839;-69
2022/09/10 02:30:06;;;;;;;;;12.50;12.50;28.10;99.90;;;;;;4983224;28;8901;-65
2022/09/10 02:32:37;;;;;;;;;16.50;16.50;28.10;99.90;;;;;;4971336;28;8879;-67
2022/09/10 02:35:09;;;;;;;;;10.50;10.50;28.10;99.90;;;;;;4968315;28;8838;-67
2022/09/10 02:37:42;;;;;;;;;13.75;13.75;28.10;99.90;;;;;;4958366;28;8842;-66
2022/09/10 02:40:13;;;;;;;;;15.50;15.50;28.10;99.90;;;;;;4954118;28;8867;-66
2022/09/10 02:42:46;;;;;;;;;14.00;14.00;28.10;99.90;;;;;;4985245;28;8843;-66
2022/09/10 02:45:24;;;;;;;;;15.50;15.50;28.00;99.90;;;;;;4957203;28;8893;-66
2022/09/10 02:47:54;;;;;;;;;15.25;15.25;28.00;99.90;;;;;;4954974;28;8870;-65
2022/09/10 02:50:26;;;;;;;;;17.00;17.00;28.00;99.90;;;;;;4954778;28;8900;-69
2022/09/10 02:53:00;;;;;;;;;14.25;14.25;28.00;99.90;;;;;;4953213;28;8893;-70
2022/09/10 02:55:34;;;;;;;;;15.25;15.25;27.90;99.90;;;;;;4983839;28;8882;-71
2022/09/10 02:58:07;;;;;;;;;14.25;14.25;27.90;99.90;;;;;;4956783;28;8847;-69
2022/09/10 03:00:44;;;;;;;;;14.50;14.50;27.90;99.90;;;;;;4955302;28;9546;-66
2022/09/10 03:03:16;;;;;;;;;13.00;13.00;27.80;99.90;;;;;;4961953;28;8854;-66
2022/09/10 03:05:51;;;;;;;;;10.25;10.25;27.80;99.90;;;;;;4959039;28;8906;-66
2022/09/10 03:08:21;;;;;;;;;14.50;14.50;27.80;99.90;;;;;;4954576;28;8847;-66
2022/09/10 03:10:58;;;;;;;;;12.00;12.00;27.60;99.90;;;;;;4955660;28;8837;-68
2022/09/10 03:13:28;;;;;;;;;11.50;11.50;27.60;99.90;;;;;;4971526;28;8839;-69
2022/09/10 03:16:02;;;;;;;;;11.75;11.75;27.70;99.90;;;;;;4972039;28;8973;-66
2022/09/10 03:18:34;;;;;;;;;12.75;12.75;27.70;99.90;;;;;;4965616;28;9669;-64
2022/09/10 03:21:17;;;;;;;;;14.00;14.00;27.70;99.90;;;;;;4956023;28;8842;-65
2022/09/10 03:23:55;;;;;;;;;12.50;12.50;27.60;99.90;;;;;;4956798;28;8850;-66
2022/09/10 03:26:29;;;;;;;;;13.00;13.00;27.60;99.90;;;;;;4973547;28;8850;-66
2022/09/10 03:29:02;;;;;;;;;12.75;12.75;27.60;99.90;;;;;;4953798;28;8855;-67
2022/09/10 03:31:38;;;;;;;;;14.25;14.25;27.50;99.90;;;;;;4966417;28;8890;-65
2022/09/10 03:34:11;;;;;;;;;14.75;14.75;27.50;99.90;;;;;;4987215;28;8874;-64
2022/09/10 03:36:48;;;;;;;;;15.25;15.25;27.50;99.90;;;;;;4980838;28;9821;-67
2022/09/10 03:39:21;;;;;;;;;14.00;14.00;27.50;99.90;;;;;;4968606;28;8871;-71
2022/09/10 03:41:52;;;;;;;;;13.75;13.75;27.50;99.90;;;;;;4958350;28;8913;-71
2022/09/10 03:44:25;;;;;;;;;16.00;14.75;27.50;99.90;;;;;;4957666;28;8843;-71
2022/09/10 03:47:04;;;;;;;;;13.25;13.25;27.50;99.90;;;;;;4957056;28;8905;-71
2022/09/10 03:49:36;;;;;;;;;16.00;15.25;27.40;99.90;;;;;;4985237;28;8887;-65
2022/09/10 03:52:11;;;;;;;;;13.25;13.25;27.40;99.90;;;;;;4954864;28;8867;-66
2022/09/10 03:54:45;;;;;;;;;14.00;14.00;27.30;99.90;;;;;;4955435;28;8870;-65
2022/09/10 03:57:16;;;;;;;;;14.50;14.50;27.30;99.90;;;;;;4965401;28;8870;-66
2022/09/10 03:59:49;;;;;;;;;15.00;15.00;27.30;99.90;;;;;;4986787;28;8859;-67
2022/09/10 04:02:20;;;;;;;;;15.50;15.00;27.20;99.90;;;;;;4953293;28;8878;-66
2022/09/10 04:04:54;;;;;;;;;14.00;14.00;27.20;99.90;;;;;;4983882;28;8851;-66
2022/09/10 04:07:29;;;;;;;;;13.75;13.75;27.20;99.90;;;;;;4955344;28;8889;-65
2022/09/10 04:10:00;;;;;;;;;14.50;14.50;27.20;99.90;;;;;;4956380;28;8839;-65
2022/09/10 04:12:37;;;;;;;;;14.25;14.25;27.20;99.90;;;;;;4958735;28;8859;-65
2022/09/10 04:15:10;;;;;;;;;16.00;16.00;27.20;99.90;;;;;;4957694;28;8843;-70
2022/09/10 04:17:42;;;;;;;;;12.00;12.00;27.20;99.90;;;;;;4957274;28;8839;-69
2022/09/10 04:20:12;;;;;;;;;14.00;14.00;27.20;99.90;;;;;;4955701;28;8893;-69
2022/09/10 04:22:44;;;;;;;;;13.25;13.25;27.20;99.90;;;;;;4958136;28;8843;-68
2022/09/10 04:25:19;;;;;;;;;14.75;14.75;27.10;99.90;;;;;;4955159;28;8847;-71
2022/09/10 04:27:50;;;;;;;;;17.25;14.75;27.10;99.90;;;;;;4972214;28;9113;-70
2022/09/10 04:30:22;;;;;;;;;16.00;16.00;27.10;99.90;;;;;;4958406;28;8867;-66
2022/09/10 04:32:55;;;;;;;;;14.25;14.25;27.00;99.90;;;;;;4974883;28;8835;-65
2022/09/10 04:35:30;;;;;;;;;13.25;13.25;27.00;99.90;;;;;;4975540;28;8849;-69
2022/09/10 04:38:04;;;;;;;;;13.50;13.50;27.00;99.90;;;;;;4967126;28;8832;-67
2022/09/10 04:40:37;;;;;;;;;13.75;13.75;27.00;99.90;;;;;;4981823;28;9694;-64
2022/09/10 04:43:12;;;;;;;;;13.00;13.00;26.90;99.90;;;;;;4953092;28;8884;-65
2022/09/10 04:45:44;;;;;;;;;12.00;12.00;27.00;99.90;;;;;;4937743;28;9013;-68
2022/09/10 04:48:15;;;;;;;;;14.50;14.50;27.00;99.90;;;;;;4975057;28;8862;-68
2022/09/10 04:50:44;;;;;;;;;13.25;13.25;26.90;99.90;;;;;;4956669;28;8881;-68
2022/09/10 04:53:41;;;;;;;;;15.00;15.00;27.00;99.90;;;;;;4960149;28;8864;-68
2022/09/10 04:56:14;;;;;;;;;11.50;11.50;27.00;99.90;;;;;;4956812;28;8835;-68
2022/09/10 04:58:44;;;;;;;;;14.50;14.50;26.90;99.90;;;;;;4959247;28;8847;-69
2022/09/10 05:01:15;;;;;;;;;13.75;12.25;26.90;99.90;;;;;;4964893;28;8887;-68
2022/09/10 05:03:51;;;;;;;;;13.50;13.50;26.90;99.90;;;;;;4975758;28;8835;-68
2022/09/10 05:06:22;;;;;;;;;13.25;13.25;26.90;99.90;;;;;;4958656;28;8889;-68
2022/09/10 05:08:53;;;;;;;;;13.75;13.75;26.90;99.90;;;;;;4966053;28;8863;-68
2022/09/10 05:11:26;;;;;;;;;13.50;13.50;26.90;99.90;;;;;;4974083;28;10706;-69
2022/09/10 05:14:01;;;;;;;;;13.00;13.00;26.90;99.90;;;;;;4975721;28;8851;-68
2022/09/10 05:16:32;;;;;;;;;13.50;13.50;26.90;99.90;;;;;;4984065;28;9634;-66
2022/09/10 05:19:05;;;;;;;;;15.00;15.00;26.80;99.90;;;;;;4974139;28;8850;-64
2022/09/10 05:21:45;;;;;;;;;13.25;13.25;26.80;99.90;;;;;;4943522;28;8861;-68
2022/09/10 05:24:16;;;;;;;;;14.25;13.25;26.70;99.90;;;;;;4972833;28;8902;-66
2022/09/10 05:26:50;;;;;;;;;15.25;15.00;26.70;99.90;;;;;;4954671;28;8839;-66
2022/09/10 05:29:20;;;;;;;;;12.75;12.75;26.70;99.90;;;;;;4962840;28;8877;-68
2022/09/10 05:31:56;;;;;;;;;16.50;16.50;26.60;99.90;;;;;;4986676;28;8866;-69
2022/09/10 05:34:27;;;;;;;;;14.75;14.75;26.60;99.90;;;;;;4960252;28;8843;-65
2022/09/10 05:36:59;;;;;;;;;14.25;14.25;26.60;99.90;;;;;;4970126;28;8831;-65
2022/09/10 05:39:31;;;;;;;;;14.75;14.75;26.60;99.90;;;;;;4978388;28;8865;-65
2022/09/10 05:42:02;;;;;;;;;12.50;12.50;26.50;99.90;;;;;;4971610;28;9574;-64
2022/09/10 05:44:35;;;;;;;;;16.25;16.25;26.50;99.90;;;;;;4972976;28;8851;-68
2022/09/10 05:47:10;;;;;;;;;11.25;11.25;26.40;99.90;;;;;;4951954;28;8867;-68
2022/09/10 05:49:41;;;;;;;;;15.50;15.50;26.30;99.90;;;;;;4976427;28;8887;-68
2022/09/10 05:52:12;;;;;;;;;15.25;14.00;26.20;99.90;;;;;;4951706;28;8847;-69
2022/09/10 05:54:43;;;;;;;;;16.75;15.00;26.10;99.90;;;;;;4961180;28;8830;-65
2022/09/10 05:57:14;;;;;;;;;14.75;14.75;26.10;99.90;;;;;;4955881;28;8850;-64
2022/09/10 05:59:46;;;;;;;;;14.25;14.25;26.00;99.90;;;;;;4966353;28;8871;-66
2022/09/10 06:02:19;;;;;;;;;13.00;13.00;26.00;99.90;;;;;;4981104;28;8866;-64
2022/09/10 06:04:54;;;;;;;;;13.00;13.00;26.10;99.90;;;;;;4955718;28;8858;-65
2022/09/10 06:07:26;;;;;;;;;13.25;13.25;26.00;99.90;;;;;;4969977;28;8838;-64
2022/09/10 06:09:59;;;;;;;;;15.25;15.25;26.10;99.90;;;;;;4983086;28;8870;-65
2022/09/10 06:12:50;;;;;;;;;15.75;15.75;26.10;99.90;;;;;;4986293;28;8837;-65
2022/09/10 06:15:23;;;;;;;;;14.25;14.25;26.10;99.90;;;;;;4957632;28;8855;-68
2022/09/10 06:17:55;;;;;;;;;15.75;15.75;25.90;99.90;;;;;;4987903;28;8856;-68
2022/09/10 06:20:31;;;;;;;;;14.00;14.00;25.80;99.90;;;;;;4961901;28;8878;-65
2022/09/10 06:23:03;;;;;;;;;15.00;15.00;25.70;99.90;;;;;;4977897;28;8889;-65
2022/09/10 06:25:35;;;;;;;;;13.00;13.00;25.70;99.90;;;;;;4975327;28;9566;-65
2022/09/10 06:28:11;;;;;;;;;14.75;13.75;25.80;99.90;;;;;;4956381;28;8847;-66
2022/09/10 06:30:41;;;;;;;;;14.25;14.25;25.80;99.90;;;;;;4973181;28;8913;-68
2022/09/10 06:33:15;;;;;;;;;14.00;14.00;25.90;99.90;;;;;;4958086;28;8850;-69
2022/09/10 06:35:56;;;;;;;;;15.25;15.25;25.80;99.90;;;;;;4973762;28;8866;-68
2022/09/10 06:38:32;;;;;;;;;16.00;16.00;25.60;99.90;;;;;;4983807;28;8859;-69
2022/09/10 06:41:04;;;;;;;;;14.00;14.00;25.60;99.90;;;;;;4960196;28;8997;-69
2022/09/10 06:43:41;;;;;;;;;13.00;13.00;25.50;99.90;;;;;;4971847;28;8901;-69
2022/09/10 06:46:30;;;;;;;;;10.50;10.50;25.40;99.90;;;;;;4966394;28;8861;-66
2022/09/10 06:49:24;;;;;;;;;14.25;14.25;25.50;99.90;;;;;;4959854;28;8843;-69
2022/09/10 06:51:56;;;;;;;;;14.25;14.25;25.70;99.90;;;;;;4987145;28;8859;-70
2022/09/10 06:54:27;;;;;;;;;17.00;17.00;25.70;99.90;;;;;;4972377;28;8847;-65
2022/09/10 06:57:07;;;;;;;;;14.75;14.75;25.70;99.90;;;;;;4955747;28;8897;-66
2022/09/10 06:59:40;;;;;;;;;12.75;12.75;25.70;99.90;;;;;;4973089;28;8845;-69
2022/09/10 07:02:14;;;;;;;;;15.00;15.00;25.70;99.90;;;;;;4957085;28;9276;-68
2022/09/10 07:04:47;;;;;;;;;15.00;15.00;25.60;99.90;;;;;;4958715;28;8888;-68
2022/09/10 07:07:19;;;;;;;;;14.00;14.00;25.60;99.90;;;;;;4987664;28;8886;-68
2022/09/10 07:09:54;;;;;;;;;14.50;14.00;25.50;99.90;;;;;;4987113;28;8874;-65
2022/09/10 07:12:26;;;;;;;;;15.00;15.00;25.50;99.90;;;;;;4955289;28;8839;-64
2022/09/10 07:14:59;;;;;;;;;16.00;16.00;25.40;99.90;;;;;;4957856;28;8851;-66
2022/09/10 07:17:35;;;;;;;;;14.25;14.25;25.40;99.90;;;;;;4958815;28;8997;-64
2022/09/10 07:20:07;;;;;;;;;13.00;13.00;25.40;99.90;;;;;;4975360;28;9048;-65
2022/09/10 07:22:44;;;;;;;;;14.00;14.00;25.30;99.90;;;;;;4973000;28;8871;-65
2022/09/10 07:25:18;;;;;;;;;17.50;17.50;25.10;99.90;;;;;;4977184;28;8883;-68
2022/09/10 07:28:15;;;;;;;;;16.25;16.25;25.10;99.90;;;;;;4953949;28;8843;-69
2022/09/10 07:30:48;;;;;;;;;16.00;14.75;25.10;99.90;;;;;;4991220;28;8889;-68
2022/09/10 07:33:21;;;;;;;;;17.75;17.75;25.00;99.90;;;;;;4944061;28;8866;-68
2022/09/10 07:35:53;;;;;;;;;16.75;16.75;25.00;99.90;;;;;;4974186;28;9002;-65
2022/09/10 07:38:23;;;;;;;;;17.50;17.50;24.90;99.90;;;;;;4954738;28;8890;-64
2022/09/10 07:40:58;;;;;;;;;13.25;13.25;24.90;99.90;;;;;;4982202;28;8871;-66
2022/09/10 07:43:28;;;;;;;;;14.25;13.75;24.90;99.90;;;;;;4950826;28;8886;-66
2022/09/10 07:46:00;;;;;;;;;14.50;14.50;24.90;99.90;;;;;;4973762;28;8877;-68
2022/09/10 07:48:37;;;;;;;;;0.50;0.50;24.90;99.90;;;;;;4959212;28;8875;-69
2022/09/10 07:51:10;;;;;;;;;14.50;14.50;24.90;99.90;;;;;;4984419;28;8909;-68
2022/09/10 07:53:41;;;;;;;;;15.50;15.50;24.80;99.90;;;;;;4952872;28;8878;-69
2022/09/10 07:56:23;;;;;;;;;14.50;14.50;24.90;99.90;;;;;;4955317;28;9640;-65
2022/09/10 07:58:55;;;;;;;;;13.00;13.00;25.00;99.90;;;;;;4959532;28;8834;-66
2022/09/10 08:01:30;;;;;;;;;16.25;16.25;25.00;99.90;;;;;;4955132;28;9041;-69
2022/09/10 08:04:04;;;;;;;;;14.50;14.50;25.00;99.90;;;;;;4975492;28;9041;-69
2022/09/10 08:06:40;;;;;;;;;16.25;16.00;25.00;99.90;;;;;;4983519;28;8869;-66
2022/09/10 08:09:13;;;;;;;;;13.25;13.25;25.10;99.90;;;;;;4988859;28;8873;-65
2022/09/10 08:11:52;;;;;;;;;17.00;15.75;25.10;99.90;;;;;;4983003;28;8859;-68
2022/09/10 08:14:24;;;;;;;;;13.75;13.75;25.10;99.90;;;;;;4955536;28;8843;-64
2022/09/10 08:17:00;;;;;;;;;13.75;13.75;25.20;99.90;;;;;;4960064;28;8862;-64
2022/09/10 08:19:35;;;;;;;;;16.25;16.25;25.20;99.90;;;;;;4969711;28;8858;-69
2022/09/10 08:22:07;;;;;;;;;14.50;14.50;25.30;99.90;;;;;;4955578;28;8847;-68
2022/09/10 08:24:49;;;;;;;;;15.00;15.00;25.30;99.90;;;;;;4951594;28;8885;-66
2022/09/10 08:27:19;;;;;;;;;13.00;13.00;25.30;99.90;;;;;;4983091;28;8881;-64
2022/09/10 08:29:50;;;;;;;;;13.75;13.75;25.10;99.90;;;;;;4952407;28;9657;-69
2022/09/10 08:32:23;;;;;;;;;14.50;14.50;25.10;99.90;;;;;;4954538;28;8992;-69
2022/09/10 08:34:57;;;;;;;;;15.50;15.50;25.10;99.90;;;;;;4952058;28;8855;-69
2022/09/10 08:37:29;;;;;;;;;8.75;8.75;25.10;99.90;;;;;;4982506;28;9662;-69
2022/09/10 08:40:02;;;;;;;;;15.00;15.00;25.00;99.90;;;;;;4981627;28;8883;-69
2022/09/10 08:42:41;;;;;;;;;13.75;13.75;25.10;99.90;;;;;;4955468;28;8847;-68
2022/09/10 08:45:24;;;;;;;;;14.00;14.00;25.10;99.90;;;;;;4946974;28;8881;-69
2022/09/10 08:48:02;;;;;;;;;12.25;12.25;25.10;99.90;;;;;;4970920;28;9672;-69
2022/09/10 08:50:54;;;;;;;;;13.50;13.50;25.00;99.90;;;;;;4953433;28;8890;-68
2022/09/10 08:54:06;;;;;;;;;13.25;13.25;24.90;99.90;;;;;;4979517;28;8889;-66
2022/09/10 08:56:40;;;;;;;;;15.50;15.50;24.90;99.90;;;;;;4969749;28;8876;-68
2022/09/10 08:59:32;;;;;;;;;14.00;14.00;24.90;99.90;;;;;;4967572;28;8855;-69
2022/09/10 09:02:29;;;;;;;;;12.50;12.50;24.80;99.90;;;;;;4966929;28;9593;-66
2022/09/10 09:05:27;;;;;;;;;12.25;12.25;24.80;99.90;;;;;;4961155;28;8855;-65
2022/09/10 09:08:00;;;;;;;;;14.50;14.50;24.90;99.90;;;;;;4951304;28;8877;-66
2022/09/10 09:10:45;;;;;;;;;15.00;15.00;24.80;99.90;;;;;;4954940;28;8854;-68
2022/09/10 09:13:18;;;;;;;;;18.50;18.50;24.90;99.90;;;;;;4967585;28;8851;-66
2022/09/10 09:16:06;;;;;;;;;15.25;15.25;25.00;99.90;;;;;;4980720;28;8850;-69
2022/09/10 09:18:48;;;;;;;;;14.25;14.25;25.00;99.90;;;;;;4969064;28;8835;-68
2022/09/10 09:21:53;;;;;;;;;14.25;14.25;24.90;99.90;;;;;;4951426;28;9728;-69
2022/09/10 09:24:54;;;;;;;;;17.50;17.50;24.90;99.90;;;;;;4950108;28;8873;-68
2022/09/10 09:27:34;;;;;;;;;16.50;15.25;25.00;99.90;;;;;;4980422;28;8896;-66
2022/09/10 09:30:06;;;;;;;;;14.00;14.00;24.90;99.90;;;;;;4953382;28;8855;-69
2022/09/10 09:32:44;;;;;;;;;14.25;14.25;24.90;99.90;;;;;;4974144;28;8882;-69
2022/09/10 09:35:27;;;;;;;;;13.50;13.50;24.90;99.90;;;;;;4952649;28;8895;-68
2022/09/10 09:38:24;;;;;;;;;13.00;13.00;24.90;99.90;;;;;;4954611;28;8855;-68
2022/09/10 09:41:05;;;;;;;;;13.75;13.75;24.90;99.90;;;;;;4972838;28;8871;-69
2022/09/10 09:43:59;;;;;;;;;14.00;14.00;24.90;99.90;;;;;;4963123;28;8859;-69
2022/09/10 09:46:30;;;;;;;;;15.25;15.25;24.80;99.90;;;;;;4957927;28;8862;-68
2022/09/10 09:49:03;;;;;;;;;16.50;16.50;24.80;99.90;;;;;;4959428;28;8875;-67
2022/09/10 09:51:39;;;;;;;;;16.25;16.25;24.80;99.90;;;;;;4954571;28;8909;-68
2022/09/10 09:54:18;;;;;;;;;14.00;14.00;24.80;99.90;;;;;;4958843;28;8851;-68
2022/09/10 09:57:19;;;;;;;;;13.50;13.50;24.80;99.90;;;;;;4953335;28;8852;-65
2022/09/10 09:59:54;;;;;;;;;14.00;14.00;24.60;99.90;;;;;;4972214;28;8900;-69
2022/09/10 10:02:24;;;;;;;;;12.25;12.25;24.60;99.90;;;;;;4970229;28;8902;-65
2022/09/10 10:05:23;;;;;;;;;15.50;15.00;24.60;99.90;;;;;;4975387;28;8859;-69
2022/09/10 10:07:54;;;;;;;;;13.00;13.00;24.60;99.90;;;;;;4953626;28;8882;-69
2022/09/10 10:10:28;;;;;;;;;15.25;15.25;24.70;99.90;;;;;;4969686;28;8851;-65
2022/09/10 10:13:01;;;;;;;;;16.25;16.25;24.70;99.90;;;;;;4957588;28;9007;-65
2022/09/10 10:15:43;;;;;;;;;14.25;14.25;24.50;99.90;;;;;;4958489;28;8893;-69
2022/09/10 10:18:23;;;;;;;;;14.00;14.00;24.50;99.90;;;;;;4953849;28;8879;-68
2022/09/10 10:21:18;;;;;;;;;15.25;15.25;24.50;99.90;;;;;;4952598;28;8855;-66
2022/09/10 10:23:48;;;;;;;;;17.25;15.75;24.50;99.90;;;;;;4956091;28;8886;-65
2022/09/10 10:26:31;;;;;;;;;15.00;15.00;24.40;99.90;;;;;;4967553;28;8838;-69
2022/09/10 10:29:18;;;;;;;;;15.25;15.25;24.50;99.90;;;;;;4973910;28;8874;-68
2022/09/10 10:31:52;;;;;;;;;17.25;17.25;24.50;99.90;;;;;;4969640;28;8846;-66
2022/09/10 10:34:53;;;;;;;;;16.00;16.00;24.50;99.90;;;;;;4956169;28;8897;-69
2022/09/10 10:37:32;;;;;;;;;16.00;15.50;24.50;99.90;;;;;;4955829;28;8877;-68
2022/09/10 10:40:04;;;;;;;;;14.50;14.50;24.40;99.90;;;;;;4952269;28;8855;-65
2022/09/10 10:42:38;;;;;;;;;15.50;15.50;24.30;99.90;;;;;;4956201;28;8886;-66
2022/09/10 10:45:30;;;;;;;;;16.50;16.50;24.30;99.90;;;;;;4953140;28;8862;-65
2022/09/10 10:48:25;;;;;;;;;14.75;14.75;24.40;99.90;;;;;;4951995;28;8924;-65
2022/09/10 10:51:17;;;;;;;;;12.50;12.50;24.40;99.90;;;;;;4956959;28;8905;-68
2022/09/10 10:53:53;;;;;;;;;15.25;15.25;24.40;99.90;;;;;;4977211;28;8901;-67
2022/09/10 10:56:50;;;;;;;;;13.50;12.50;24.50;99.90;;;;;;4983605;28;8863;-68
2022/09/10 10:59:49;;;;;;;;;15.00;15.00;24.50;99.90;;;;;;4985484;28;8879;-69
2022/09/10 11:02:38;;;;;;;;;15.25;15.25;24.50;99.90;;;;;;4966712;28;8858;-71
2022/09/10 11:05:42;;;;;;;;;13.25;13.25;24.50;99.90;;;;;;4957832;28;8843;-68
2022/09/10 11:08:49;;;;;;;;;12.25;12.25;24.50;99.90;;;;;;4966531;28;8869;-68
2022/09/10 11:11:31;;;;;;;;;15.50;15.50;24.50;99.90;;;;;;4942005;28;8862;-67
2022/09/10 11:14:43;;;;;;;;;14.75;14.75;24.50;99.90;;;;;;4982241;28;8859;-69
2022/09/10 11:17:25;;;;;;;;;17.75;16.75;24.40;99.90;;;;;;4953363;28;8881;-65
2022/09/10 11:20:02;;;;;;;;;16.25;16.25;24.30;99.90;;;;;;4978640;28;8890;-68
2022/09/10 11:23:23;;;;;;;;;16.50;16.50;24.30;99.90;;;;;;4977983;28;8870;-69
2022/09/10 11:26:24;;;;;;;;;14.50;14.50;24.30;99.90;;;;;;4951186;28;9027;-65
2022/09/10 11:29:18;;;;;;;;;14.50;14.50;24.50;99.90;;;;;;4956322;28;8850;-65
2022/09/10 11:31:59;;;;;;;;;16.00;16.00;24.50;99.90;;;;;;4968447;28;8847;-69
2022/09/10 11:34:48;;;;;;;;;16.00;16.00;24.50;99.90;;;;;;4981521;28;8917;-66
2022/09/10 11:37:39;;;;;;;;;18.00;18.00;24.50;99.90;;;;;;4952612;28;8859;-65
2022/09/10 11:40:38;;;;;;;;;13.00;13.00;24.30;99.90;;;;;;4967948;28;8926;-68
2022/09/10 11:43:38;;;;;;;;;13.50;13.50;24.30;99.90;;;;;;4953727;28;8867;-69
2022/09/10 11:46:16;;;;;;;;;14.25;14.25;24.10;99.90;;;;;;4964897;28;8839;-68
2022/09/10 11:49:02;;;;;;;;;14.50;14.50;24.00;99.90;;;;;;4953827;28;8859;-68
2022/09/10 11:51:41;;;;;;;;;14.25;14.25;23.90;99.90;;;;;;4955854;28;8890;-65
2022/09/10 11:54:27;;;;;;;;;15.00;15.00;23.80;99.90;;;;;;4954871;28;9028;-65
2022/09/10 11:57:08;;;;;;;;;16.25;16.25;23.80;99.90;;;;;;4954557;28;8839;-69
2022/09/10 12:00:10;;;;;;;;;16.50;16.25;23.70;99.90;;;;;;4954113;28;8865;-69
2022/09/10 12:02:58;;;;;;;;;15.50;15.50;23.80;99.90;;;;;;4957066;28;8851;-69
2022/09/10 12:05:32;;;;;;;;;15.75;14.50;23.80;99.90;;;;;;4954129;28;8886;-66
2022/09/10 12:08:28;;;;;;;;;15.25;15.25;23.70;99.90;;;;;;4953203;28;8854;-66
2022/09/10 12:11:17;;;;;;;;;16.50;16.50;23.70;99.90;;;;;;4966577;28;8866;-68
2022/09/10 12:13:49;;;;;;;;;16.00;15.00;23.70;99.90;;;;;;4956017;28;8839;-68
2022/09/10 12:16:57;;;;;;;;;13.00;13.00;23.70;99.90;;;;;;4968589;28;8897;-65
2022/09/10 12:19:33;;;;;;;;;15.50;14.50;23.60;99.90;;;;;;4945892;28;8990;-69
2022/09/10 12:22:19;;;;;;;;;17.25;15.75;23.70;99.90;;;;;;4979965;28;9184;-69
2022/09/10 12:25:04;;;;;;;;;14.25;14.25;23.80;99.90;;;;;;4964208;28;8851;-67
2022/09/10 12:27:48;;;;;;;;;17.75;17.75;23.80;99.90;;;;;;4980042;28;8866;-68
2022/09/10 12:30:27;;;;;;;;;17.00;17.00;23.90;99.90;;;;;;4964188;28;8867;-65
2022/09/10 12:33:23;;;;;;;;;16.25;16.25;23.90;99.90;;;;;;4953698;28;8851;-65
2022/09/10 12:35:53;;;;;;;;;15.00;15.00;23.80;99.90;;;;;;4956354;28;8893;-69
2022/09/10 12:38:48;;;;;;;;;14.25;14.25;23.70;99.90;;;;;;4952257;28;8846;-68
2022/09/10 12:41:20;;;;;;;;;19.00;19.00;23.80;99.90;;;;;;4981480;28;8901;-68
2022/09/10 12:44:00;;;;;;;;;15.75;15.75;23.70;99.90;;;;;;4951582;28;8901;-68
2022/09/10 12:46:34;;;;;;;;;15.25;15.25;23.80;99.90;;;;;;4952945;28;8859;-68
2022/09/10 12:49:12;;;;;;;;;17.00;17.00;23.70;99.90;;;;;;4972077;28;8909;-69
2022/09/10 12:51:58;;;;;;;;;16.25;16.25;23.90;99.90;;;;;;4978521;28;8847;-66
2022/09/10 12:54:54;;;;;;;;;15.25;15.25;23.90;99.90;;;;;;4980984;28;8847;-68
2022/09/10 12:57:33;;;;;;;;;16.50;16.50;23.90;99.90;;;;;;4950841;28;8866;-68
2022/09/10 13:00:24;;;;;;;;;16.00;16.00;23.90;99.90;;;;;;4951220;28;8855;-66
2022/09/10 13:03:14;;;;;;;;;16.75;16.75;23.90;99.90;;;;;;4960340;28;8898;-65
2022/09/10 13:05:46;;;;;;;;;16.75;16.75;24.00;99.90;;;;;;4955343;28;8899;-64
2022/09/10 13:08:20;;;;;;;;;16.50;16.50;24.00;99.90;;;;;;4958238;28;8847;-66
2022/09/10 13:10:57;;;;;;;;;16.00;16.00;24.10;99.90;;;;;;4955852;28;8865;-65
2022/09/10 13:13:55;;;;;;;;;18.75;18.75;24.10;99.90;;;;;;4962181;28;9315;-65
2022/09/10 13:16:30;;;;;;;;;14.75;13.50;24.20;99.90;;;;;;4957577;28;9001;-65
2022/09/10 13:19:19;;;;;;;;;16.25;16.25;24.30;99.90;;;;;;4954908;28;8874;-66
2022/09/10 13:21:54;;;;;;;;;18.25;18.25;24.50;99.90;;;;;;4958772;28;8870;-66
2022/09/10 13:24:56;;;;;;;;;18.50;18.50;24.50;99.90;;;;;;4955740;28;9653;-65
2022/09/10 13:27:40;;;;;;;;;13.75;13.75;24.60;99.90;;;;;;4954939;28;8861;-64
2022/09/10 13:30:19;;;;;;;;;19.00;18.25;24.70;99.90;;;;;;4955943;28;8851;-65
2022/09/10 13:32:51;;;;;;;;;14.00;14.00;24.70;99.90;;;;;;4972737;28;8851;-65
2022/09/10 13:35:50;;;;;;;;;15.25;15.25;24.70;99.90;;;;;;4956237;28;8875;-69
2022/09/10 13:38:27;;;;;;;;;12.25;12.25;24.70;99.90;;;;;;4958588;28;8839;-69